Time;durP1;ratioP1;P1;durP2;ratioP2;P2;SDS_P1;SDS_P2;PMS_P1;PMS_P2;Temp;Humidity;BMP_temperature;BMP_pressure;BME280_temperature;BME280_humidity;BME280_pressure;Samples;Min_cycle;Max_cycle;Signal;HPM_P1;HPM_P2
2022/05/31 00:00:44;;;;;;;4.5;3.8;;;;;;;7.2;68.34473;94965.16;;;;
2022/05/31 00:01:44;;;;;;;4.5;3.8;;;;;;;7.2;68.34473;94965.16;;;;
2022/05/31 00:02:48;;;;;;;4.5;3.8;;;;;;;7.2;68.34473;94965.16;;;;
2022/05/31 00:03:50;;;;;;;4.5;3.8;;;;;;;7.2;68.34473;94965.16;;;;
2022/05/31 00:04:50;;;;;;;4.5;3.8;;;;;;;7.2;68.34473;94965.16;;;;
2022/05/31 00:05:51;;;;;;;3.750001;3.45;;;;;;;7.11;68.55566;94954.02;;;;
2022/05/31 00:06:52;;;;;;;3.750001;3.45;;;;;;;7.11;68.55566;94954.02;;;;
2022/05/31 00:07:52;;;;;;;3.750001;3.45;;;;;;;7.11;68.55566;94954.02;;;;
2022/05/31 00:08:54;;;;;;;3.750001;3.45;;;;;;;7.11;68.55566;94954.02;;;;
2022/05/31 00:09:55;;;;;;;3.750001;3.45;;;;;;;7.11;68.55566;94954.02;;;;
2022/05/31 00:10:55;;;;;;;3.750001;3.45;;;;;;;7.11;68.55566;94954.02;;;;
2022/05/31 00:11:57;;;;;;;3.750001;3.45;;;;;;;7.11;68.55566;94954.02;;;;
2022/05/31 00:12:57;;;;;;;3.750001;3.45;;;;;;;7.11;68.55566;94954.02;;;;
2022/05/31 00:13:58;;;;;;;3.750001;3.45;;;;;;;7.11;68.55566;94954.02;;;;
2022/05/31 00:14:58;;;;;;;3.750001;3.45;;;;;;;7.11;68.55566;94954.02;;;;
2022/05/31 00:15:59;;;;;;;3.750001;3.45;;;;;;;7.11;68.55566;94954.02;;;;
2022/05/31 00:17:00;;;;;;;4.349999;3.95;;;;;;;7.07;68.7207;94967.22;;;;
2022/05/31 00:18:01;;;;;;;4.349999;3.95;;;;;;;7.07;68.7207;94967.22;;;;
2022/05/31 00:19:01;;;;;;;4.349999;3.95;;;;;;;7.07;68.7207;94967.22;;;;
2022/05/31 00:20:02;;;;;;;4.349999;3.95;;;;;;;7.07;68.7207;94967.22;;;;
2022/05/31 00:21:04;;;;;;;4.349999;3.95;;;;;;;7.07;68.7207;94967.22;;;;
2022/05/31 00:22:06;;;;;;;4.349999;3.95;;;;;;;7.07;68.7207;94967.22;;;;
2022/05/31 00:23:11;;;;;;;4.349999;3.95;;;;;;;7.07;68.7207;94967.22;;;;
2022/05/31 00:24:12;;;;;;;4.349999;3.95;;;;;;;7.07;68.7207;94967.22;;;;
2022/05/31 00:25:17;;;;;;;4.349999;3.95;;;;;;;7.07;68.7207;94967.22;;;;
2022/05/31 00:26:18;;;;;;;4.349999;3.95;;;;;;;7.07;68.7207;94967.22;;;;
2022/05/31 00:27:18;;;;;;;4.400001;4;;;;;;;6.97;68.91797;94962.87;;;;
2022/05/31 00:28:21;;;;;;;4.400001;4;;;;;;;6.97;68.91797;94962.87;;;;
2022/05/31 00:29:23;;;;;;;4.400001;4;;;;;;;6.97;68.91797;94962.87;;;;
2022/05/31 00:30:23;;;;;;;4.400001;4;;;;;;;6.97;68.91797;94962.87;;;;
2022/05/31 00:31:24;;;;;;;4.400001;4;;;;;;;6.97;68.91797;94962.87;;;;
2022/05/31 00:32:24;;;;;;;4.400001;4;;;;;;;6.97;68.91797;94962.87;;;;
2022/05/31 00:33:29;;;;;;;4.400001;4;;;;;;;6.97;68.91797;94962.87;;;;
2022/05/31 00:34:29;;;;;;;4.400001;4;;;;;;;6.97;68.91797;94962.87;;;;
2022/05/31 00:35:32;;;;;;;4.400001;4;;;;;;;6.97;68.91797;94962.87;;;;
2022/05/31 00:36:36;;;;;;;4.400001;4;;;;;;;6.97;68.91797;94962.87;;;;
2022/05/31 00:37:39;;;;;;;4.400001;4;;;;;;;6.97;68.91797;94962.87;;;;
2022/05/31 00:38:39;;;;;;;4.65;3.95;;;;;;;6.95;69.04297;94953.06;;;;
2022/05/31 00:39:40;;;;;;;4.65;3.95;;;;;;;6.95;69.04297;94953.06;;;;
2022/05/31 00:40:40;;;;;;;4.65;3.95;;;;;;;6.95;69.04297;94953.06;;;;
2022/05/31 00:41:41;;;;;;;4.65;3.95;;;;;;;6.95;69.04297;94953.06;;;;
2022/05/31 00:42:42;;;;;;;4.65;3.95;;;;;;;6.95;69.04297;94953.06;;;;
2022/05/31 00:43:49;;;;;;;4.65;3.95;;;;;;;6.95;69.04297;94953.06;;;;
2022/05/31 00:44:50;;;;;;;4.65;3.95;;;;;;;6.95;69.04297;94953.06;;;;
2022/05/31 00:45:51;;;;;;;4.65;3.95;;;;;;;6.95;69.04297;94953.06;;;;
2022/05/31 00:46:57;;;;;;;4.65;3.95;;;;;;;6.95;69.04297;94953.06;;;;
2022/05/31 00:48:00;;;;;;;4.65;3.95;;;;;;;6.95;69.04297;94953.06;;;;
2022/05/31 00:49:02;;;;;;;4.9;4.25;;;;;;;6.88;69.25586;94953.13;;;;
2022/05/31 00:50:06;;;;;;;4.9;4.25;;;;;;;6.88;69.25586;94953.13;;;;
2022/05/31 00:51:12;;;;;;;4.9;4.25;;;;;;;6.88;69.25586;94953.13;;;;
2022/05/31 00:52:17;;;;;;;4.9;4.25;;;;;;;6.88;69.25586;94953.13;;;;
2022/05/31 00:53:24;;;;;;;4.9;4.25;;;;;;;6.88;69.25586;94953.13;;;;
2022/05/31 00:54:28;;;;;;;4.9;4.25;;;;;;;6.88;69.25586;94953.13;;;;
2022/05/31 00:55:32;;;;;;;4.9;4.25;;;;;;;6.88;69.25586;94953.13;;;;
2022/05/31 00:56:36;;;;;;;4.9;4.25;;;;;;;6.88;69.25586;94953.13;;;;
2022/05/31 00:57:36;;;;;;;4.9;4.25;;;;;;;6.88;69.25586;94953.13;;;;
2022/05/31 00:58:42;;;;;;;4.9;4.25;;;;;;;6.88;69.25586;94953.13;;;;
2022/05/31 00:59:50;;;;;;;4.6;4.2;;;;;;;6.89;69.39746;94958.7;;;;
2022/05/31 01:00:55;;;;;;;4.6;4.2;;;;;;;6.89;69.39746;94958.7;;;;
2022/05/31 01:01:56;;;;;;;4.6;4.2;;;;;;;6.89;69.39746;94958.7;;;;
2022/05/31 01:02:57;;;;;;;4.6;4.2;;;;;;;6.89;69.39746;94958.7;;;;
2022/05/31 01:03:58;;;;;;;4.6;4.2;;;;;;;6.89;69.39746;94958.7;;;;
2022/05/31 01:05:00;;;;;;;4.6;4.2;;;;;;;6.89;69.39746;94958.7;;;;
2022/05/31 01:06:03;;;;;;;4.6;4.2;;;;;;;6.89;69.39746;94958.7;;;;
2022/05/31 01:07:05;;;;;;;4.6;4.2;;;;;;;6.89;69.39746;94958.7;;;;
2022/05/31 01:08:06;;;;;;;4.6;4.2;;;;;;;6.89;69.39746;94958.7;;;;
2022/05/31 01:09:07;;;;;;;4.6;4.2;;;;;;;6.89;69.39746;94958.7;;;;
2022/05/31 01:10:08;;;;;;;4.75;4.35;;;;;;;6.84;69.57031;94958.89;;;;
2022/05/31 01:11:12;;;;;;;4.75;4.35;;;;;;;6.84;69.57031;94958.89;;;;
2022/05/31 01:12:14;;;;;;;4.75;4.35;;;;;;;6.84;69.57031;94958.89;;;;
2022/05/31 01:13:16;;;;;;;4.75;4.35;;;;;;;6.84;69.57031;94958.89;;;;
2022/05/31 01:14:18;;;;;;;4.75;4.35;;;;;;;6.84;69.57031;94958.89;;;;
2022/05/31 01:15:18;;;;;;;4.75;4.35;;;;;;;6.84;69.57031;94958.89;;;;
2022/05/31 01:16:20;;;;;;;4.75;4.35;;;;;;;6.84;69.57031;94958.89;;;;
2022/05/31 01:17:20;;;;;;;4.75;4.35;;;;;;;6.84;69.57031;94958.89;;;;
2022/05/31 01:18:24;;;;;;;4.75;4.35;;;;;;;6.84;69.57031;94958.89;;;;
2022/05/31 01:19:59;;;;;;;4.75;4.35;;;;;;;6.84;69.57031;94958.89;;;;
2022/05/31 01:21:03;;;;;;;4.75;4.349999;;;;;;;6.87;69.76855;94950.61;;;;
2022/05/31 01:22:04;;;;;;;4.75;4.349999;;;;;;;6.87;69.76855;94950.61;;;;
2022/05/31 01:23:05;;;;;;;4.75;4.349999;;;;;;;6.87;69.76855;94950.61;;;;
2022/05/31 01:24:12;;;;;;;4.75;4.349999;;;;;;;6.87;69.76855;94950.61;;;;
2022/05/31 01:25:15;;;;;;;4.75;4.349999;;;;;;;6.87;69.76855;94950.61;;;;
2022/05/31 01:26:35;;;;;;;4.75;4.349999;;;;;;;6.87;69.76855;94950.61;;;;
2022/05/31 01:27:46;;;;;;;4.75;4.349999;;;;;;;6.87;69.76855;94950.61;;;;
2022/05/31 01:28:56;;;;;;;4.75;4.349999;;;;;;;6.87;69.76855;94950.61;;;;
2022/05/31 01:30:03;;;;;;;4.75;4.349999;;;;;;;6.87;69.76855;94950.61;;;;
2022/05/31 01:31:07;;;;;;;5.55;4.900001;;;;;;;6.89;69.87793;94949.89;;;;
2022/05/31 01:32:12;;;;;;;5.55;4.900001;;;;;;;6.89;69.87793;94949.89;;;;
2022/05/31 01:33:13;;;;;;;5.55;4.900001;;;;;;;6.89;69.87793;94949.89;;;;
2022/05/31 01:34:23;;;;;;;5.55;4.900001;;;;;;;6.89;69.87793;94949.89;;;;
2022/05/31 01:35:29;;;;;;;5.55;4.900001;;;;;;;6.89;69.87793;94949.89;;;;
2022/05/31 01:36:32;;;;;;;5.55;4.900001;;;;;;;6.89;69.87793;94949.89;;;;
2022/05/31 01:37:38;;;;;;;5.55;4.900001;;;;;;;6.89;69.87793;94949.89;;;;
2022/05/31 01:38:44;;;;;;;5.55;4.900001;;;;;;;6.89;69.87793;94949.89;;;;
2022/05/31 01:39:49;;;;;;;5.55;4.900001;;;;;;;6.89;69.87793;94949.89;;;;
2022/05/31 01:40:59;;;;;;;5.55;4.900001;;;;;;;6.89;69.87793;94949.89;;;;
2022/05/31 01:42:17;;;;;;;5.6;4.900001;;;;;;;6.99;69.98926;94937.6;;;;
2022/05/31 01:43:23;;;;;;;5.6;4.900001;;;;;;;6.99;69.98926;94937.6;;;;
2022/05/31 01:44:23;;;;;;;5.6;4.900001;;;;;;;6.99;69.98926;94937.6;;;;
2022/05/31 01:45:29;;;;;;;5.6;4.900001;;;;;;;6.99;69.98926;94937.6;;;;
2022/05/31 01:46:37;;;;;;;5.6;4.900001;;;;;;;6.99;69.98926;94937.6;;;;
2022/05/31 01:47:38;;;;;;;5.6;4.900001;;;;;;;6.99;69.98926;94937.6;;;;
2022/05/31 01:48:39;;;;;;;5.6;4.900001;;;;;;;6.99;69.98926;94937.6;;;;
2022/05/31 01:49:41;;;;;;;5.6;4.900001;;;;;;;6.99;69.98926;94937.6;;;;
2022/05/31 01:50:46;;;;;;;5.6;4.900001;;;;;;;6.99;69.98926;94937.6;;;;
2022/05/31 01:51:47;;;;;;;5.6;4.900001;;;;;;;6.99;69.98926;94937.6;;;;
2022/05/31 01:52:48;;;;;;;5.1;4.6;;;;;;;7.03;70.125;94920.45;;;;
2022/05/31 01:53:51;;;;;;;5.1;4.6;;;;;;;7.03;70.125;94920.45;;;;
2022/05/31 01:54:53;;;;;;;5.1;4.6;;;;;;;7.03;70.125;94920.45;;;;
2022/05/31 01:55:54;;;;;;;5.1;4.6;;;;;;;7.03;70.125;94920.45;;;;
2022/05/31 01:56:55;;;;;;;5.1;4.6;;;;;;;7.03;70.125;94920.45;;;;
2022/05/31 01:58:01;;;;;;;5.1;4.6;;;;;;;7.03;70.125;94920.45;;;;
2022/05/31 01:59:05;;;;;;;5.1;4.6;;;;;;;7.03;70.125;94920.45;;;;
2022/05/31 02:00:06;;;;;;;5.1;4.6;;;;;;;7.03;70.125;94920.45;;;;
2022/05/31 02:01:10;;;;;;;5.1;4.6;;;;;;;7.03;70.125;94920.45;;;;
2022/05/31 02:02:15;;;;;;;5.1;4.6;;;;;;;7.03;70.125;94920.45;;;;
2022/05/31 02:03:17;;;;;;;4.45;4.05;;;;;;;7.1;70.25488;94923.47;;;;
2022/05/31 02:04:20;;;;;;;4.45;4.05;;;;;;;7.1;70.25488;94923.47;;;;
2022/05/31 02:05:20;;;;;;;4.45;4.05;;;;;;;7.1;70.25488;94923.47;;;;
2022/05/31 02:06:21;;;;;;;4.45;4.05;;;;;;;7.1;70.25488;94923.47;;;;
2022/05/31 02:07:25;;;;;;;4.45;4.05;;;;;;;7.1;70.25488;94923.47;;;;
2022/05/31 02:08:29;;;;;;;4.45;4.05;;;;;;;7.1;70.25488;94923.47;;;;
2022/05/31 02:09:30;;;;;;;4.45;4.05;;;;;;;7.1;70.25488;94923.47;;;;
2022/05/31 02:10:32;;;;;;;4.45;4.05;;;;;;;7.1;70.25488;94923.47;;;;
2022/05/31 02:11:32;;;;;;;4.45;4.05;;;;;;;7.1;70.25488;94923.47;;;;
2022/05/31 02:12:35;;;;;;;4.45;4.05;;;;;;;7.1;70.25488;94923.47;;;;
2022/05/31 02:13:36;;;;;;;4.45;4.05;;;;;;;7.1;70.25488;94923.47;;;;
2022/05/31 02:14:37;;;;;;;4.25;3.8;;;;;;;7.03;70.4668;94916.5;;;;
2022/05/31 02:15:37;;;;;;;4.25;3.8;;;;;;;7.03;70.4668;94916.5;;;;
2022/05/31 02:16:38;;;;;;;4.25;3.8;;;;;;;7.03;70.4668;94916.5;;;;
2022/05/31 02:17:39;;;;;;;4.25;3.8;;;;;;;7.03;70.4668;94916.5;;;;
2022/05/31 02:19:44;;;;;;;4.25;3.8;;;;;;;7.03;70.4668;94916.5;;;;
2022/05/31 02:20:45;;;;;;;4.25;3.8;;;;;;;7.03;70.4668;94916.5;;;;
2022/05/31 02:21:45;;;;;;;4.25;3.8;;;;;;;7.03;70.4668;94916.5;;;;
2022/05/31 02:22:46;;;;;;;4.25;3.8;;;;;;;7.03;70.4668;94916.5;;;;
2022/05/31 02:23:46;;;;;;;4.25;3.8;;;;;;;7.03;70.4668;94916.5;;;;
2022/05/31 02:24:47;;;;;;;4.45;4.05;;;;;;;7.03;70.65918;94920.94;;;;
2022/05/31 02:25:47;;;;;;;4.45;4.05;;;;;;;7.03;70.65918;94920.94;;;;
2022/05/31 02:26:48;;;;;;;4.45;4.05;;;;;;;7.03;70.65918;94920.94;;;;
2022/05/31 02:27:48;;;;;;;4.45;4.05;;;;;;;7.03;70.65918;94920.94;;;;
2022/05/31 02:28:49;;;;;;;4.45;4.05;;;;;;;7.03;70.65918;94920.94;;;;
2022/05/31 02:29:49;;;;;;;4.45;4.05;;;;;;;7.03;70.65918;94920.94;;;;
2022/05/31 02:30:50;;;;;;;4.45;4.05;;;;;;;7.03;70.65918;94920.94;;;;
2022/05/31 02:31:50;;;;;;;4.45;4.05;;;;;;;7.03;70.65918;94920.94;;;;
2022/05/31 02:32:52;;;;;;;4.45;4.05;;;;;;;7.03;70.65918;94920.94;;;;
2022/05/31 02:33:52;;;;;;;4.45;4.05;;;;;;;7.03;70.65918;94920.94;;;;
2022/05/31 02:34:54;;;;;;;4.45;4.05;;;;;;;7.03;70.65918;94920.94;;;;
2022/05/31 02:35:55;;;;;;;4.4;4;;;;;;;6.95;70.83984;94917.07;;;;
2022/05/31 02:36:56;;;;;;;4.4;4;;;;;;;6.95;70.83984;94917.07;;;;
2022/05/31 02:37:58;;;;;;;4.4;4;;;;;;;6.95;70.83984;94917.07;;;;
2022/05/31 02:38:59;;;;;;;4.4;4;;;;;;;6.95;70.83984;94917.07;;;;
2022/05/31 02:40:00;;;;;;;4.4;4;;;;;;;6.95;70.83984;94917.07;;;;
2022/05/31 02:41:02;;;;;;;4.4;4;;;;;;;6.95;70.83984;94917.07;;;;
2022/05/31 02:42:03;;;;;;;4.4;4;;;;;;;6.95;70.83984;94917.07;;;;
2022/05/31 02:43:05;;;;;;;4.4;4;;;;;;;6.95;70.83984;94917.07;;;;
2022/05/31 02:44:06;;;;;;;4.4;4;;;;;;;6.95;70.83984;94917.07;;;;
2022/05/31 02:45:07;;;;;;;4.4;4;;;;;;;6.95;70.83984;94917.07;;;;
2022/05/31 02:46:10;;;;;;;4.349999;3.95;;;;;;;6.94;70.96484;94930.81;;;;
2022/05/31 02:47:10;;;;;;;4.349999;3.95;;;;;;;6.94;70.96484;94930.81;;;;
2022/05/31 02:48:11;;;;;;;4.349999;3.95;;;;;;;6.94;70.96484;94930.81;;;;
2022/05/31 02:49:11;;;;;;;4.349999;3.95;;;;;;;6.94;70.96484;94930.81;;;;
2022/05/31 02:50:12;;;;;;;4.349999;3.95;;;;;;;6.94;70.96484;94930.81;;;;
2022/05/31 02:51:12;;;;;;;4.349999;3.95;;;;;;;6.94;70.96484;94930.81;;;;
2022/05/31 02:52:13;;;;;;;4.349999;3.95;;;;;;;6.94;70.96484;94930.81;;;;
2022/05/31 02:53:14;;;;;;;4.349999;3.95;;;;;;;6.94;70.96484;94930.81;;;;
2022/05/31 02:54:15;;;;;;;4.349999;3.95;;;;;;;6.94;70.96484;94930.81;;;;
2022/05/31 02:55:17;;;;;;;4.349999;3.95;;;;;;;6.94;70.96484;94930.81;;;;
2022/05/31 02:56:18;;;;;;;4.349999;3.95;;;;;;;6.94;70.96484;94930.81;;;;
2022/05/31 02:57:19;;;;;;;4.8;3.95;;;;;;;6.84;71.19531;94944.82;;;;
2022/05/31 02:58:20;;;;;;;4.8;3.95;;;;;;;6.84;71.19531;94944.82;;;;
2022/05/31 02:59:20;;;;;;;4.8;3.95;;;;;;;6.84;71.19531;94944.82;;;;
2022/05/31 03:00:22;;;;;;;4.8;3.95;;;;;;;6.84;71.19531;94944.82;;;;
2022/05/31 03:01:23;;;;;;;4.8;3.95;;;;;;;6.84;71.19531;94944.82;;;;
2022/05/31 03:02:26;;;;;;;4.8;3.95;;;;;;;6.84;71.19531;94944.82;;;;
2022/05/31 03:03:26;;;;;;;4.8;3.95;;;;;;;6.84;71.19531;94944.82;;;;
2022/05/31 03:04:27;;;;;;;4.8;3.95;;;;;;;6.84;71.19531;94944.82;;;;
2022/05/31 03:05:28;;;;;;;4.8;3.95;;;;;;;6.84;71.19531;94944.82;;;;
2022/05/31 03:06:28;;;;;;;4.8;3.95;;;;;;;6.84;71.19531;94944.82;;;;
2022/05/31 03:07:29;;;;;;;5.7;3.95;;;;;;;6.86;71.36914;94949.8;;;;
2022/05/31 03:08:30;;;;;;;5.7;3.95;;;;;;;6.86;71.36914;94949.8;;;;
2022/05/31 03:09:30;;;;;;;5.7;3.95;;;;;;;6.86;71.36914;94949.8;;;;
2022/05/31 03:10:31;;;;;;;5.7;3.95;;;;;;;6.86;71.36914;94949.8;;;;
2022/05/31 03:11:34;;;;;;;5.7;3.95;;;;;;;6.86;71.36914;94949.8;;;;
2022/05/31 03:12:40;;;;;;;5.7;3.95;;;;;;;6.86;71.36914;94949.8;;;;
2022/05/31 03:13:40;;;;;;;5.7;3.95;;;;;;;6.86;71.36914;94949.8;;;;
2022/05/31 03:14:44;;;;;;;5.7;3.95;;;;;;;6.86;71.36914;94949.8;;;;
2022/05/31 03:15:49;;;;;;;5.7;3.95;;;;;;;6.86;71.36914;94949.8;;;;
2022/05/31 03:16:52;;;;;;;5.7;3.95;;;;;;;6.86;71.36914;94949.8;;;;
2022/05/31 03:18:00;;;;;;;4.3;3.9;;;;;;;6.89;71.49121;94947.67;;;;
2022/05/31 03:19:06;;;;;;;4.3;3.9;;;;;;;6.89;71.49121;94947.67;;;;
2022/05/31 03:20:11;;;;;;;4.3;3.9;;;;;;;6.89;71.49121;94947.67;;;;
2022/05/31 03:21:17;;;;;;;4.3;3.9;;;;;;;6.89;71.49121;94947.67;;;;
2022/05/31 03:22:24;;;;;;;4.3;3.9;;;;;;;6.89;71.49121;94947.67;;;;
2022/05/31 03:23:27;;;;;;;4.3;3.9;;;;;;;6.89;71.49121;94947.67;;;;
2022/05/31 03:24:33;;;;;;;4.3;3.9;;;;;;;6.89;71.49121;94947.67;;;;
2022/05/31 03:25:38;;;;;;;4.3;3.9;;;;;;;6.89;71.49121;94947.67;;;;
2022/05/31 03:26:41;;;;;;;4.3;3.9;;;;;;;6.89;71.49121;94947.67;;;;
2022/05/31 03:27:42;;;;;;;4.3;3.9;;;;;;;6.89;71.49121;94947.67;;;;
2022/05/31 03:28:44;;;;;;;4.450001;4.050001;;;;;;;7.05;71.53809;94954.41;;;;
2022/05/31 03:29:45;;;;;;;4.450001;4.050001;;;;;;;7.05;71.53809;94954.41;;;;
2022/05/31 03:30:48;;;;;;;4.450001;4.050001;;;;;;;7.05;71.53809;94954.41;;;;
2022/05/31 03:31:49;;;;;;;4.450001;4.050001;;;;;;;7.05;71.53809;94954.41;;;;
2022/05/31 03:32:49;;;;;;;4.450001;4.050001;;;;;;;7.05;71.53809;94954.41;;;;
2022/05/31 03:33:52;;;;;;;4.450001;4.050001;;;;;;;7.05;71.53809;94954.41;;;;
2022/05/31 03:34:52;;;;;;;4.450001;4.050001;;;;;;;7.05;71.53809;94954.41;;;;
2022/05/31 03:35:53;;;;;;;4.450001;4.050001;;;;;;;7.05;71.53809;94954.41;;;;
2022/05/31 03:36:53;;;;;;;4.450001;4.050001;;;;;;;7.05;71.53809;94954.41;;;;
2022/05/31 03:37:54;;;;;;;4.450001;4.050001;;;;;;;7.05;71.53809;94954.41;;;;
2022/05/31 03:38:54;;;;;;;4.450001;4.050001;;;;;;;7.05;71.53809;94954.41;;;;
2022/05/31 03:39:55;;;;;;;4.649999;4.25;;;;;;;7.17;71.62305;94952.31;;;;
2022/05/31 03:40:56;;;;;;;4.649999;4.25;;;;;;;7.17;71.62305;94952.31;;;;
2022/05/31 03:41:57;;;;;;;4.649999;4.25;;;;;;;7.17;71.62305;94952.31;;;;
2022/05/31 03:42:57;;;;;;;4.649999;4.25;;;;;;;7.17;71.62305;94952.31;;;;
2022/05/31 03:43:59;;;;;;;4.649999;4.25;;;;;;;7.17;71.62305;94952.31;;;;
2022/05/31 03:45:00;;;;;;;4.649999;4.25;;;;;;;7.17;71.62305;94952.31;;;;
2022/05/31 03:46:00;;;;;;;4.649999;4.25;;;;;;;7.17;71.62305;94952.31;;;;
2022/05/31 03:47:01;;;;;;;4.649999;4.25;;;;;;;7.17;71.62305;94952.31;;;;
2022/05/31 03:48:02;;;;;;;4.649999;4.25;;;;;;;7.17;71.62305;94952.31;;;;
2022/05/31 03:49:03;;;;;;;4.649999;4.25;;;;;;;7.17;71.62305;94952.31;;;;
2022/05/31 03:50:04;;;;;;;4.1;3.8;;;;;;;7.36;71.69629;94944.54;;;;
2022/05/31 03:51:05;;;;;;;4.1;3.8;;;;;;;7.36;71.69629;94944.54;;;;
2022/05/31 03:52:08;;;;;;;4.1;3.8;;;;;;;7.36;71.69629;94944.54;;;;
2022/05/31 03:53:10;;;;;;;4.1;3.8;;;;;;;7.36;71.69629;94944.54;;;;
2022/05/31 03:54:12;;;;;;;4.1;3.8;;;;;;;7.36;71.69629;94944.54;;;;
2022/05/31 03:55:12;;;;;;;4.1;3.8;;;;;;;7.36;71.69629;94944.54;;;;
2022/05/31 03:56:13;;;;;;;4.1;3.8;;;;;;;7.36;71.69629;94944.54;;;;
2022/05/31 03:57:13;;;;;;;4.1;3.8;;;;;;;7.36;71.69629;94944.54;;;;
2022/05/31 03:58:18;;;;;;;4.1;3.8;;;;;;;7.36;71.69629;94944.54;;;;
2022/05/31 03:59:18;;;;;;;4.1;3.8;;;;;;;7.36;71.69629;94944.54;;;;
2022/05/31 04:00:19;;;;;;;4.1;3.8;;;;;;;7.36;71.69629;94944.54;;;;
2022/05/31 04:01:20;;;;;;;4.75;4.25;;;;;;;7.48;71.79102;94936.78;;;;
2022/05/31 04:02:21;;;;;;;4.75;4.25;;;;;;;7.48;71.79102;94936.78;;;;
2022/05/31 04:03:21;;;;;;;4.75;4.25;;;;;;;7.48;71.79102;94936.78;;;;
2022/05/31 04:04:22;;;;;;;4.75;4.25;;;;;;;7.48;71.79102;94936.78;;;;
2022/05/31 04:05:22;;;;;;;4.75;4.25;;;;;;;7.48;71.79102;94936.78;;;;
2022/05/31 04:06:23;;;;;;;4.75;4.25;;;;;;;7.48;71.79102;94936.78;;;;
2022/05/31 04:07:23;;;;;;;4.75;4.25;;;;;;;7.48;71.79102;94936.78;;;;
2022/05/31 04:08:24;;;;;;;4.75;4.25;;;;;;;7.48;71.79102;94936.78;;;;
2022/05/31 04:09:26;;;;;;;4.75;4.25;;;;;;;7.48;71.79102;94936.78;;;;
2022/05/31 04:10:26;;;;;;;4.75;4.25;;;;;;;7.48;71.79102;94936.78;;;;
2022/05/31 04:11:29;;;;;;;4.849999;4.349999;;;;;;;7.84;71.9248;94959.23;;;;
2022/05/31 04:12:30;;;;;;;4.849999;4.349999;;;;;;;7.84;71.9248;94959.23;;;;
2022/05/31 04:13:33;;;;;;;4.849999;4.349999;;;;;;;7.84;71.9248;94959.23;;;;
2022/05/31 04:14:33;;;;;;;4.849999;4.349999;;;;;;;7.84;71.9248;94959.23;;;;
2022/05/31 04:15:34;;;;;;;4.849999;4.349999;;;;;;;7.84;71.9248;94959.23;;;;
2022/05/31 04:16:35;;;;;;;4.849999;4.349999;;;;;;;7.84;71.9248;94959.23;;;;
2022/05/31 04:17:36;;;;;;;4.849999;4.349999;;;;;;;7.84;71.9248;94959.23;;;;
2022/05/31 04:18:37;;;;;;;4.849999;4.349999;;;;;;;7.84;71.9248;94959.23;;;;
2022/05/31 04:19:38;;;;;;;4.849999;4.349999;;;;;;;7.84;71.9248;94959.23;;;;
2022/05/31 04:20:41;;;;;;;4.849999;4.349999;;;;;;;7.84;71.9248;94959.23;;;;
2022/05/31 04:21:41;;;;;;;4.849999;4.349999;;;;;;;7.84;71.9248;94959.23;;;;
2022/05/31 04:22:42;;;;;;;4.65;4.25;;;;;;;8.27;71.73047;94966.92;;;;
2022/05/31 04:23:58;;;;;;;4.65;4.25;;;;;;;8.27;71.73047;94966.92;;;;
2022/05/31 04:25:01;;;;;;;4.65;4.25;;;;;;;8.27;71.73047;94966.92;;;;
2022/05/31 04:26:02;;;;;;;4.65;4.25;;;;;;;8.27;71.73047;94966.92;;;;
2022/05/31 04:27:03;;;;;;;4.65;4.25;;;;;;;8.27;71.73047;94966.92;;;;
2022/05/31 04:28:04;;;;;;;4.65;4.25;;;;;;;8.27;71.73047;94966.92;;;;
2022/05/31 04:29:05;;;;;;;4.65;4.25;;;;;;;8.27;71.73047;94966.92;;;;
2022/05/31 04:30:05;;;;;;;4.65;4.25;;;;;;;8.27;71.73047;94966.92;;;;
2022/05/31 04:31:07;;;;;;;4.65;4.25;;;;;;;8.27;71.73047;94966.92;;;;
2022/05/31 04:32:08;;;;;;;4.65;4.25;;;;;;;8.27;71.73047;94966.92;;;;
2022/05/31 04:33:10;;;;;;;4.15;3.7;;;;;;;8.74;71.75293;94971.04;;;;
2022/05/31 04:34:11;;;;;;;4.15;3.7;;;;;;;8.74;71.75293;94971.04;;;;
2022/05/31 04:35:11;;;;;;;4.15;3.7;;;;;;;8.74;71.75293;94971.04;;;;
2022/05/31 04:36:12;;;;;;;4.15;3.7;;;;;;;8.74;71.75293;94971.04;;;;
2022/05/31 04:37:15;;;;;;;4.15;3.7;;;;;;;8.74;71.75293;94971.04;;;;
2022/05/31 04:38:16;;;;;;;4.15;3.7;;;;;;;8.74;71.75293;94971.04;;;;
2022/05/31 04:39:17;;;;;;;4.15;3.7;;;;;;;8.74;71.75293;94971.04;;;;
2022/05/31 04:40:17;;;;;;;4.15;3.7;;;;;;;8.74;71.75293;94971.04;;;;
2022/05/31 04:41:17;;;;;;;4.15;3.7;;;;;;;8.74;71.75293;94971.04;;;;
2022/05/31 04:42:21;;;;;;;4.15;3.7;;;;;;;8.74;71.75293;94971.04;;;;
2022/05/31 04:43:21;;;;;;;4.3;3.4;;;;;;;9.06;71.75195;94985.13;;;;
2022/05/31 04:44:22;;;;;;;4.3;3.4;;;;;;;9.06;71.75195;94985.13;;;;
2022/05/31 04:45:23;;;;;;;4.3;3.4;;;;;;;9.06;71.75195;94985.13;;;;
2022/05/31 04:46:25;;;;;;;4.3;3.4;;;;;;;9.06;71.75195;94985.13;;;;
2022/05/31 04:47:28;;;;;;;4.3;3.4;;;;;;;9.06;71.75195;94985.13;;;;
2022/05/31 04:48:28;;;;;;;4.3;3.4;;;;;;;9.06;71.75195;94985.13;;;;
2022/05/31 04:49:29;;;;;;;4.3;3.4;;;;;;;9.06;71.75195;94985.13;;;;
2022/05/31 04:50:29;;;;;;;4.3;3.4;;;;;;;9.06;71.75195;94985.13;;;;
2022/05/31 04:51:30;;;;;;;4.3;3.4;;;;;;;9.06;71.75195;94985.13;;;;
2022/05/31 04:52:31;;;;;;;4.3;3.4;;;;;;;9.06;71.75195;94985.13;;;;
2022/05/31 04:53:32;;;;;;;4.3;3.4;;;;;;;9.06;71.75195;94985.13;;;;
2022/05/31 04:54:33;;;;;;;3.9;3.299999;;;;;;;9.47;71.77637;94970.09;;;;
2022/05/31 04:55:33;;;;;;;3.9;3.299999;;;;;;;9.47;71.77637;94970.09;;;;
2022/05/31 04:56:34;;;;;;;3.9;3.299999;;;;;;;9.47;71.77637;94970.09;;;;
2022/05/31 04:57:35;;;;;;;3.9;3.299999;;;;;;;9.47;71.77637;94970.09;;;;
2022/05/31 04:58:36;;;;;;;3.9;3.299999;;;;;;;9.47;71.77637;94970.09;;;;
2022/05/31 04:59:37;;;;;;;3.9;3.299999;;;;;;;9.47;71.77637;94970.09;;;;
2022/05/31 05:00:37;;;;;;;3.9;3.299999;;;;;;;9.47;71.77637;94970.09;;;;
2022/05/31 05:01:38;;;;;;;3.9;3.299999;;;;;;;9.47;71.77637;94970.09;;;;
2022/05/31 05:02:38;;;;;;;3.9;3.299999;;;;;;;9.47;71.77637;94970.09;;;;
2022/05/31 05:03:41;;;;;;;3.9;3.299999;;;;;;;9.47;71.77637;94970.09;;;;
2022/05/31 05:04:42;;;;;;;3.9;3.299999;;;;;;;9.47;71.77637;94970.09;;;;
2022/05/31 05:05:42;;;;;;;3.9;3.299999;;;;;;;9.47;71.77637;94970.09;;;;
2022/05/31 05:06:43;;;;;;;3.9;3.299999;;;;;;;9.47;71.77637;94970.09;;;;
2022/05/31 05:07:43;;;;;;;3.9;3.299999;;;;;;;9.47;71.77637;94970.09;;;;
2022/05/31 05:08:44;;;;;;;3.9;3.299999;;;;;;;9.47;71.77637;94970.09;;;;
2022/05/31 05:09:45;;;;;;;3.9;3.299999;;;;;;;9.47;71.77637;94970.09;;;;
2022/05/31 05:10:46;;;;;;;3.9;3.299999;;;;;;;9.47;71.77637;94970.09;;;;
2022/05/31 05:11:46;;;;;;;3.9;3.299999;;;;;;;9.47;71.77637;94970.09;;;;
2022/05/31 05:12:47;;;;;;;3.9;3.299999;;;;;;;9.47;71.77637;94970.09;;;;
2022/05/31 05:13:47;;;;;;;3.9;3.299999;;;;;;;9.47;71.77637;94970.09;;;;
2022/05/31 05:14:49;;;;;;;3.9;3.299999;;;;;;;9.47;71.77637;94970.09;;;;
2022/05/31 05:15:51;;;;;;;3.45;3.15;;;;;;;10.22;71.58789;94984.08;;;;
2022/05/31 05:16:53;;;;;;;3.45;3.15;;;;;;;10.22;71.58789;94984.08;;;;
2022/05/31 05:17:53;;;;;;;3.45;3.15;;;;;;;10.22;71.58789;94984.08;;;;
2022/05/31 05:18:54;;;;;;;3.45;3.15;;;;;;;10.22;71.58789;94984.08;;;;
2022/05/31 05:19:54;;;;;;;3.45;3.15;;;;;;;10.22;71.58789;94984.08;;;;
2022/05/31 05:20:55;;;;;;;3.45;3.15;;;;;;;10.22;71.58789;94984.08;;;;
2022/05/31 05:21:56;;;;;;;3.45;3.15;;;;;;;10.22;71.58789;94984.08;;;;
2022/05/31 05:22:56;;;;;;;3.45;3.15;;;;;;;10.22;71.58789;94984.08;;;;
2022/05/31 05:23:57;;;;;;;3.45;3.15;;;;;;;10.22;71.58789;94984.08;;;;
2022/05/31 05:24:57;;;;;;;3.45;3.15;;;;;;;10.22;71.58789;94984.08;;;;
2022/05/31 05:25:58;;;;;;;4.2;3;;;;;;;10.47;71.51074;94965.01;;;;
2022/05/31 05:26:59;;;;;;;4.2;3;;;;;;;10.47;71.51074;94965.01;;;;
2022/05/31 05:27:59;;;;;;;4.2;3;;;;;;;10.47;71.51074;94965.01;;;;
2022/05/31 05:34:11;;;;;;;4.2;3;;;;;;;10.47;71.51074;94965.01;;;;
2022/05/31 05:35:11;;;;;;;4.2;3;;;;;;;10.47;71.51074;94965.01;;;;
2022/05/31 05:36:12;;;;;;;4.2;3;;;;;;;10.47;71.51074;94965.01;;;;
2022/05/31 05:37:13;;;;;;;3;2.7;;;;;;;10.68;71.67383;94977.94;;;;
2022/05/31 05:38:14;;;;;;;3;2.7;;;;;;;10.68;71.67383;94977.94;;;;
2022/05/31 05:39:14;;;;;;;3;2.7;;;;;;;10.68;71.67383;94977.94;;;;
2022/05/31 05:40:15;;;;;;;3;2.7;;;;;;;10.68;71.67383;94977.94;;;;
2022/05/31 05:41:15;;;;;;;3;2.7;;;;;;;10.68;71.67383;94977.94;;;;
2022/05/31 05:42:17;;;;;;;3;2.7;;;;;;;10.68;71.67383;94977.94;;;;
2022/05/31 05:43:18;;;;;;;3;2.7;;;;;;;10.68;71.67383;94977.94;;;;
2022/05/31 05:44:19;;;;;;;3;2.7;;;;;;;10.68;71.67383;94977.94;;;;
2022/05/31 05:45:19;;;;;;;3;2.7;;;;;;;10.68;71.67383;94977.94;;;;
2022/05/31 05:46:20;;;;;;;3;2.7;;;;;;;10.68;71.67383;94977.94;;;;
2022/05/31 05:47:22;;;;;;;2.95;2.6;;;;;;;10.83;71.83887;94980.08;;;;
2022/05/31 05:48:22;;;;;;;2.95;2.6;;;;;;;10.83;71.83887;94980.08;;;;
2022/05/31 05:49:23;;;;;;;2.95;2.6;;;;;;;10.83;71.83887;94980.08;;;;
2022/05/31 05:50:23;;;;;;;2.95;2.6;;;;;;;10.83;71.83887;94980.08;;;;
2022/05/31 05:51:25;;;;;;;2.95;2.6;;;;;;;10.83;71.83887;94980.08;;;;
2022/05/31 05:52:27;;;;;;;2.95;2.6;;;;;;;10.83;71.83887;94980.08;;;;
2022/05/31 05:53:29;;;;;;;2.95;2.6;;;;;;;10.83;71.83887;94980.08;;;;
2022/05/31 05:54:29;;;;;;;2.95;2.6;;;;;;;10.83;71.83887;94980.08;;;;
2022/05/31 05:55:30;;;;;;;2.95;2.6;;;;;;;10.83;71.83887;94980.08;;;;
2022/05/31 05:56:31;;;;;;;2.95;2.6;;;;;;;10.83;71.83887;94980.08;;;;
2022/05/31 05:57:32;;;;;;;2.95;2.6;;;;;;;10.83;71.83887;94980.08;;;;
2022/05/31 05:58:32;;;;;;;3.8;2.65;;;;;;;11.23;71.81934;94983.36;;;;
2022/05/31 05:59:33;;;;;;;3.8;2.65;;;;;;;11.23;71.81934;94983.36;;;;